Terminal Aerodrome Forecast
Issued by NWS

Home | Current Version | Previous Version | Text Only | Print | Product List | Glossary On
Versions: 1 2 3 4 5 6 7 8 9 10 11 12 13 14 15 16 17 18 19 20 21 22 23 24 25 26 27 28 29 30 31
000
FTUS45 KBOI 301124
TAFMYL
TAF
KMYL 301124Z 3012/0112 VRB03KT P6SM BKN005 BKN020 OVC050
      TEMPO 3012/3013 -SHRA SCT006 OVC050
     FM301400 VRB04KT P6SM BKN015 BKN060
     FM301900 28008KT P6SM BKN045
     FM010200 VRB03KT P6SM BKN070=

USA.gov is the U.S. government's official web portal to all federal, state and local government web resources and services.